createdAt,value
2023-02-15T00:00:01.031Z,1027.98
2023-02-15T00:01:00.958Z,1027.95
2023-02-15T00:02:00.938Z,1027.93
2023-02-15T00:03:00.908Z,1027.93
2023-02-15T00:04:00.752Z,1027.93
2023-02-15T00:05:00.683Z,1027.95
2023-02-15T00:06:00.938Z,1027.91
2023-02-15T00:07:00.533Z,1027.96
2023-02-15T00:08:00.461Z,1027.98
2023-02-15T00:09:00.401Z,1028.00
2023-02-15T00:10:00.329Z,1028.03
2023-02-15T00:11:00.270Z,1028.04
2023-02-15T00:12:00.188Z,1027.97
2023-02-15T00:13:00.118Z,1028.00
2023-02-15T00:14:00.043Z,1027.97
2023-02-15T00:14:59.976Z,1027.94
2023-02-15T00:16:00.319Z,1027.90
2023-02-15T00:16:59.836Z,1027.90
2023-02-15T00:17:59.770Z,1027.86
2023-02-15T00:18:59.701Z,1027.86
2023-02-15T00:19:59.631Z,1027.88
2023-02-15T00:20:59.566Z,1027.83
2023-02-15T00:21:59.488Z,1027.80
2023-02-15T00:22:59.416Z,1027.78
2023-02-15T00:23:59.350Z,1027.76
2023-02-15T00:24:59.279Z,1027.73
2023-02-15T00:25:59.465Z,1027.67
2023-02-15T00:26:59.140Z,1027.70
2023-02-15T00:27:59.068Z,1027.71
2023-02-15T00:28:59.001Z,1027.68
2023-02-15T00:29:58.951Z,1027.66
2023-02-15T00:30:58.964Z,1027.65
2023-02-15T00:31:58.795Z,1027.68
2023-02-15T00:32:58.721Z,1027.64
2023-02-15T00:33:58.651Z,1027.67
2023-02-15T00:34:58.591Z,1027.66
2023-02-15T00:35:58.578Z,1027.64
2023-02-15T00:36:58.446Z,1027.65
2023-02-15T00:37:58.368Z,1027.68
2023-02-15T00:38:58.300Z,1027.71
2023-02-15T00:39:58.230Z,1027.72
2023-02-15T00:40:58.174Z,1027.74
2023-02-15T00:41:58.095Z,1027.73
2023-02-15T00:42:58.022Z,1027.71
2023-02-15T00:43:57.948Z,1027.72
2023-02-15T00:44:57.890Z,1027.72
2023-02-15T00:45:57.855Z,1027.71
2023-02-15T00:46:57.748Z,1027.76
2023-02-15T00:47:57.694Z,1027.76
2023-02-15T00:48:57.611Z,1027.74
2023-02-15T00:49:57.626Z,1027.77
2023-02-15T00:50:57.564Z,1027.77
2023-02-15T00:51:57.395Z,1027.77
2023-02-15T00:52:57.330Z,1027.77
2023-02-15T00:53:57.254Z,1027.74
2023-02-15T00:54:57.183Z,1027.77
2023-02-15T00:55:57.113Z,1027.72
2023-02-15T00:56:57.086Z,1027.73
2023-02-15T00:57:56.969Z,1027.68
2023-02-15T00:58:56.915Z,1027.71
2023-02-15T00:59:56.836Z,1027.70
2023-02-15T01:00:56.896Z,1027.71
2023-02-15T01:01:56.906Z,1027.69
2023-02-15T01:02:56.622Z,1027.68
2023-02-15T01:03:56.567Z,1027.64
2023-02-15T01:04:56.481Z,1027.60
2023-02-15T01:05:56.410Z,1027.57
2023-02-15T01:06:56.351Z,1027.52
2023-02-15T01:07:56.278Z,1027.51
2023-02-15T01:08:56.207Z,1027.54
2023-02-15T01:09:56.134Z,1027.49
2023-02-15T01:10:56.069Z,1027.50
2023-02-15T01:11:55.992Z,1027.46
2023-02-15T01:12:55.929Z,1027.46
2023-02-15T01:13:55.853Z,1027.46
2023-02-15T01:14:55.782Z,1027.40
2023-02-15T01:15:55.891Z,1027.42
2023-02-15T01:16:55.644Z,1027.44
2023-02-15T01:17:55.572Z,1027.48
2023-02-15T01:18:55.546Z,1027.41
2023-02-15T01:19:55.443Z,1027.44
2023-02-15T01:20:55.365Z,1027.43
2023-02-15T01:21:55.297Z,1027.41
2023-02-15T01:22:55.225Z,1027.41
2023-02-15T01:23:55.163Z,1027.41
2023-02-15T01:24:55.084Z,1027.41
2023-02-15T01:25:55.014Z,1027.42
2023-02-15T01:26:54.954Z,1027.41
2023-02-15T01:27:54.874Z,1027.35
2023-02-15T01:28:54.801Z,1027.41
2023-02-15T01:29:54.772Z,1027.37
2023-02-15T01:30:54.723Z,1027.36
2023-02-15T01:31:54.704Z,1027.34
2023-02-15T01:32:54.523Z,1027.35
2023-02-15T01:33:54.448Z,1027.30
2023-02-15T01:34:54.458Z,1027.30
2023-02-15T01:35:54.310Z,1027.26
2023-02-15T01:36:54.241Z,1027.30
2023-02-15T01:37:54.170Z,1027.27
2023-02-15T01:38:54.101Z,1027.25
2023-02-15T01:39:54.025Z,1027.25
2023-02-15T01:40:53.966Z,1027.23
2023-02-15T01:41:53.892Z,1027.22
2023-02-15T01:42:53.810Z,1027.20
2023-02-15T01:43:53.755Z,1027.17
2023-02-15T01:44:53.680Z,1027.13
2023-02-15T01:45:53.641Z,1027.10
2023-02-15T01:46:53.541Z,1027.12
2023-02-15T01:47:53.461Z,1027.04
2023-02-15T01:48:53.387Z,1027.05
2023-02-15T01:49:53.331Z,1026.99
2023-02-15T01:50:53.245Z,1026.98
2023-02-15T01:51:53.185Z,1026.97
2023-02-15T01:52:53.106Z,1026.99
2023-02-15T01:53:53.150Z,1026.96
2023-02-15T01:54:52.970Z,1026.92
2023-02-15T01:55:52.900Z,1026.94
2023-02-15T01:56:52.819Z,1026.90
2023-02-15T01:57:52.748Z,1026.88
2023-02-15T01:58:52.677Z,1026.86
2023-02-15T01:59:52.621Z,1026.89
2023-02-15T02:00:52.536Z,1026.87
2023-02-15T02:01:52.635Z,1026.89
2023-02-15T02:02:52.426Z,1026.89
2023-02-15T02:03:52.325Z,1026.86
2023-02-15T02:04:52.268Z,1026.80
2023-02-15T02:05:52.187Z,1026.80
2023-02-15T02:06:52.165Z,1026.78
2023-02-15T02:07:52.090Z,1026.77
2023-02-15T02:08:51.970Z,1026.79
2023-02-15T02:09:51.911Z,1026.80
2023-02-15T02:10:51.834Z,1026.79
2023-02-15T02:11:51.759Z,1026.75
2023-02-15T02:12:51.691Z,1026.71
2023-02-15T02:13:51.624Z,1026.73
2023-02-15T02:14:51.666Z,1026.67
2023-02-15T02:15:51.524Z,1026.70
2023-02-15T02:16:51.424Z,1026.71
2023-02-15T02:17:51.333Z,1026.71
2023-02-15T02:18:51.260Z,1026.70
2023-02-15T02:19:51.195Z,1026.68
2023-02-15T02:20:51.118Z,1026.69
2023-02-15T02:21:51.054Z,1026.71
2023-02-15T02:22:50.978Z,1026.69
2023-02-15T02:23:50.905Z,1026.71
2023-02-15T02:24:50.835Z,1026.71
2023-02-15T02:25:50.779Z,1026.66
2023-02-15T02:26:50.703Z,1026.63
2023-02-15T02:27:50.627Z,1026.66
2023-02-15T02:28:50.559Z,1026.63
2023-02-15T02:29:50.548Z,1026.64
2023-02-15T02:30:50.550Z,1026.59
2023-02-15T02:31:50.465Z,1026.58
2023-02-15T02:32:50.265Z,1026.59
2023-02-15T02:33:50.200Z,1026.53
2023-02-15T02:34:50.136Z,1026.50
2023-02-15T02:35:50.063Z,1026.53
2023-02-15T02:36:49.989Z,1026.53
2023-02-15T02:37:49.918Z,1026.57
2023-02-15T02:38:49.841Z,1026.54
2023-02-15T02:39:49.774Z,1026.55
2023-02-15T02:40:49.700Z,1026.54
2023-02-15T02:41:49.647Z,1026.56
2023-02-15T02:42:49.571Z,1026.53
2023-02-15T02:43:49.495Z,1026.53
2023-02-15T02:44:49.424Z,1026.49
2023-02-15T02:45:49.348Z,1026.54
2023-02-15T02:46:49.301Z,1026.50
2023-02-15T02:47:49.206Z,1026.47
2023-02-15T02:48:49.137Z,1026.50
2023-02-15T02:49:49.062Z,1026.44
2023-02-15T02:50:48.995Z,1026.44
2023-02-15T02:51:48.927Z,1026.41
2023-02-15T02:52:48.848Z,1026.44
2023-02-15T02:53:48.778Z,1026.46
2023-02-15T02:54:48.709Z,1026.42
2023-02-15T02:55:48.637Z,1026.42
2023-02-15T02:56:48.570Z,1026.44
2023-02-15T02:57:48.493Z,1026.43
2023-02-15T02:58:48.421Z,1026.40
2023-02-15T02:59:48.353Z,1026.36
2023-02-15T03:00:48.278Z,1026.40
2023-02-15T03:01:48.310Z,1026.37
2023-02-15T03:02:48.180Z,1026.37
2023-02-15T03:03:48.067Z,1026.35
2023-02-15T03:04:48.003Z,1026.36
2023-02-15T03:05:47.939Z,1026.38
2023-02-15T03:06:47.850Z,1026.35
2023-02-15T03:07:47.780Z,1026.34
2023-02-15T03:08:47.718Z,1026.37
2023-02-15T03:09:47.645Z,1026.36
2023-02-15T03:10:47.570Z,1026.31
2023-02-15T03:11:47.508Z,1026.33
2023-02-15T03:12:47.428Z,1026.36
2023-02-15T03:13:47.356Z,1026.32
2023-02-15T03:14:47.289Z,1026.30
2023-02-15T03:15:47.255Z,1026.31
2023-02-15T03:16:47.148Z,1026.34
2023-02-15T03:17:47.073Z,1026.30
2023-02-15T03:18:47.002Z,1026.29
2023-02-15T03:19:46.939Z,1026.28
2023-02-15T03:20:46.859Z,1026.23
2023-02-15T03:21:46.788Z,1026.21
2023-02-15T03:22:46.726Z,1026.22
2023-02-15T03:23:46.645Z,1026.17
2023-02-15T03:24:46.586Z,1026.19
2023-02-15T03:25:46.507Z,1026.16
2023-02-15T03:26:46.436Z,1026.19
2023-02-15T03:27:46.366Z,1026.09
2023-02-15T03:28:46.313Z,1026.16
2023-02-15T03:29:46.218Z,1026.14
2023-02-15T03:30:46.152Z,1026.11
2023-02-15T03:31:46.196Z,1026.15
2023-02-15T03:32:46.017Z,1026.11
2023-02-15T03:33:45.936Z,1026.09
2023-02-15T03:34:45.861Z,1026.12
2023-02-15T03:35:45.816Z,1026.10
2023-02-15T03:36:45.732Z,1026.06
2023-02-15T03:37:45.646Z,1026.10
2023-02-15T03:38:45.581Z,1026.05
2023-02-15T03:39:45.520Z,1026.07
2023-02-15T03:40:45.434Z,1026.07
2023-02-15T03:41:45.364Z,1026.02
2023-02-15T03:42:45.298Z,1026.07
2023-02-15T03:43:45.226Z,1026.03
2023-02-15T03:44:45.145Z,1026.04
2023-02-15T03:45:45.093Z,1026.01
2023-02-15T03:46:45.087Z,1025.98
2023-02-15T03:47:44.959Z,1026.05
2023-02-15T03:48:44.868Z,1026.04
2023-02-15T03:49:44.790Z,1026.03
2023-02-15T03:50:44.718Z,1026.01
2023-02-15T03:51:44.650Z,1026.02
2023-02-15T03:52:44.576Z,1026.01
2023-02-15T03:53:44.507Z,1025.99
2023-02-15T03:54:44.447Z,1026.03
2023-02-15T03:55:44.364Z,1025.99
2023-02-15T03:56:44.289Z,1026.00
2023-02-15T03:57:44.219Z,1025.98
2023-02-15T03:58:44.151Z,1025.94
2023-02-15T03:59:44.093Z,1025.94
2023-02-15T04:00:44.153Z,1025.93
2023-02-15T04:01:43.981Z,1025.90
2023-02-15T04:02:43.918Z,1025.93
2023-02-15T04:03:43.804Z,1025.95
2023-02-15T04:04:43.722Z,1025.91
2023-02-15T04:05:43.649Z,1025.90
2023-02-15T04:06:43.581Z,1025.92
2023-02-15T04:07:43.504Z,1025.90
2023-02-15T04:08:43.433Z,1025.87
2023-02-15T04:09:43.360Z,1025.87
2023-02-15T04:10:43.288Z,1025.86
2023-02-15T04:11:43.218Z,1025.88
2023-02-15T04:12:43.144Z,1025.86
2023-02-15T04:13:43.080Z,1025.91
2023-02-15T04:14:43.017Z,1025.88
2023-02-15T04:15:42.939Z,1025.82
2023-02-15T04:16:42.910Z,1025.83
2023-02-15T04:17:42.793Z,1025.83
2023-02-15T04:18:42.715Z,1025.81
2023-02-15T04:19:42.645Z,1025.76
2023-02-15T04:20:42.574Z,1025.74
2023-02-15T04:21:42.508Z,1025.76
2023-02-15T04:22:42.439Z,1025.74
2023-02-15T04:23:42.371Z,1025.71
2023-02-15T04:24:42.316Z,1025.74
2023-02-15T04:25:42.222Z,1025.74
2023-02-15T04:26:42.136Z,1025.69
2023-02-15T04:27:42.069Z,1025.71
2023-02-15T04:28:42.008Z,1025.72
2023-02-15T04:29:41.925Z,1025.73
2023-02-15T04:30:41.852Z,1025.71
2023-02-15T04:31:41.843Z,1025.70
2023-02-15T04:32:41.726Z,1025.71
2023-02-15T04:33:41.642Z,1025.73
2023-02-15T04:34:41.585Z,1025.76
2023-02-15T04:35:41.497Z,1025.74
2023-02-15T04:36:41.421Z,1025.67
2023-02-15T04:37:41.364Z,1025.72
2023-02-15T04:38:41.286Z,1025.71
2023-02-15T04:39:41.211Z,1025.63
2023-02-15T04:40:41.135Z,1025.62
2023-02-15T04:41:41.067Z,1025.58
2023-02-15T04:42:41.005Z,1025.59
2023-02-15T04:43:40.924Z,1025.57
2023-02-15T04:44:40.844Z,1025.58
2023-02-15T04:45:40.796Z,1025.55
2023-02-15T04:46:40.707Z,1025.50
2023-02-15T04:47:40.651Z,1025.44
2023-02-15T04:48:40.564Z,1025.44
2023-02-15T04:49:40.556Z,1025.46
2023-02-15T04:50:40.425Z,1025.40
2023-02-15T04:51:40.351Z,1025.44
2023-02-15T04:52:40.281Z,1025.40
2023-02-15T04:53:40.202Z,1025.41
2023-02-15T04:54:40.138Z,1025.40
2023-02-15T04:55:40.061Z,1025.33
2023-02-15T04:56:40.021Z,1025.36
2023-02-15T04:57:39.918Z,1025.34
2023-02-15T04:58:39.854Z,1025.30
2023-02-15T04:59:39.772Z,1025.31
2023-02-15T05:00:39.711Z,1025.27
2023-02-15T05:01:39.639Z,1025.28
2023-02-15T05:02:39.555Z,1025.25
2023-02-15T05:03:39.489Z,1025.22
2023-02-15T05:04:39.410Z,1025.20
2023-02-15T05:05:39.340Z,1025.19
2023-02-15T05:06:39.295Z,1025.19
2023-02-15T05:07:39.202Z,1025.19
2023-02-15T05:08:39.197Z,1025.15
2023-02-15T05:09:39.061Z,1025.15
2023-02-15T05:10:38.992Z,1025.08
2023-02-15T05:11:38.910Z,1025.13
2023-02-15T05:12:38.843Z,1025.13
2023-02-15T05:13:38.772Z,1025.15
2023-02-15T05:14:38.699Z,1025.14
2023-02-15T05:15:38.626Z,1025.16
2023-02-15T05:16:38.595Z,1025.15
2023-02-15T05:17:38.478Z,1025.15
2023-02-15T05:18:38.407Z,1025.19
2023-02-15T05:19:38.340Z,1025.17
2023-02-15T05:20:38.260Z,1025.19
2023-02-15T05:21:38.193Z,1025.15
2023-02-15T05:22:38.125Z,1025.16
2023-02-15T05:23:38.051Z,1025.16
2023-02-15T05:24:37.981Z,1025.15
2023-02-15T05:25:37.909Z,1025.15
2023-02-15T05:26:37.844Z,1025.18
2023-02-15T05:27:37.765Z,1025.12
2023-02-15T05:28:37.703Z,1025.16
2023-02-15T05:29:37.638Z,1025.14
2023-02-15T05:30:37.759Z,1025.14
2023-02-15T05:31:37.743Z,1025.10
2023-02-15T05:32:37.663Z,1025.12
2023-02-15T05:33:37.387Z,1025.08
2023-02-15T05:34:37.327Z,1025.09
2023-02-15T05:35:37.190Z,1025.07
2023-02-15T05:36:37.215Z,1025.04
2023-02-15T05:37:37.051Z,1025.04
2023-02-15T05:38:36.980Z,1025.05
2023-02-15T05:39:36.913Z,1025.00
2023-02-15T05:40:36.831Z,1025.04
2023-02-15T05:41:36.759Z,1025.06
2023-02-15T05:42:36.707Z,1025.03
2023-02-15T05:43:36.619Z,1025.01
2023-02-15T05:44:36.551Z,1025.01
2023-02-15T05:45:36.471Z,1025.00
2023-02-15T05:46:36.418Z,1024.98
2023-02-15T05:47:36.338Z,1024.92
2023-02-15T05:48:36.284Z,1024.98
2023-02-15T05:49:36.192Z,1024.89
2023-02-15T05:50:36.290Z,1024.90
2023-02-15T05:51:36.043Z,1024.92
2023-02-15T05:52:35.969Z,1024.92
2023-02-15T05:53:35.895Z,1024.91
2023-02-15T05:54:35.839Z,1024.88
2023-02-15T05:55:35.760Z,1024.90
2023-02-15T05:56:35.769Z,1024.89
2023-02-15T05:57:35.624Z,1024.85
2023-02-15T05:58:35.541Z,1024.88
2023-02-15T05:59:35.468Z,1024.91
2023-02-15T06:00:37.344Z,1024.88
2023-02-15T06:01:35.328Z,1024.92
2023-02-15T06:02:35.279Z,1024.92
2023-02-15T06:03:35.225Z,1024.92
2023-02-15T06:04:35.898Z,1024.95
2023-02-15T06:05:35.037Z,1024.94
2023-02-15T06:06:34.964Z,1024.90
2023-02-15T06:07:34.892Z,1024.92
2023-02-15T06:08:34.830Z,1024.93
2023-02-15T06:09:34.758Z,1024.92
2023-02-15T06:10:34.680Z,1024.92
2023-02-15T06:11:34.616Z,1024.90
2023-02-15T06:12:34.565Z,1024.89
2023-02-15T06:13:36.581Z,1024.86
2023-02-15T06:14:34.396Z,1024.85
2023-02-15T06:15:34.370Z,1024.88
2023-02-15T06:16:34.259Z,1024.88
2023-02-15T06:17:34.185Z,1024.94
2023-02-15T06:18:34.145Z,1024.91
2023-02-15T06:19:34.036Z,1024.85
2023-02-15T06:20:33.957Z,1024.92
2023-02-15T06:21:33.905Z,1024.91
2023-02-15T06:22:33.831Z,1024.92
2023-02-15T06:23:33.741Z,1024.96
2023-02-15T06:24:33.674Z,1024.92
2023-02-15T06:25:36.058Z,1024.96
2023-02-15T06:26:33.530Z,1024.91
2023-02-15T06:27:33.465Z,1024.90
2023-02-15T06:28:33.384Z,1024.90
2023-02-15T06:29:33.308Z,1024.89
2023-02-15T06:30:33.299Z,1024.90
2023-02-15T06:31:33.288Z,1024.89
2023-02-15T06:32:33.096Z,1024.89
2023-02-15T06:33:33.026Z,1024.87
2023-02-15T06:34:32.967Z,1024.87
2023-02-15T06:35:32.880Z,1024.84
2023-02-15T06:36:32.843Z,1024.89
2023-02-15T06:37:32.794Z,1024.85
2023-02-15T06:38:32.669Z,1024.86
2023-02-15T06:39:32.627Z,1024.86
2023-02-15T06:40:32.519Z,1024.87
2023-02-15T06:41:32.446Z,1024.86
2023-02-15T06:42:32.408Z,1024.85
2023-02-15T06:43:32.299Z,1024.87
2023-02-15T06:44:32.231Z,1024.84
2023-02-15T06:45:32.169Z,1024.84
2023-02-15T06:46:32.115Z,1024.83
2023-02-15T06:47:32.092Z,1024.83
2023-02-15T06:48:31.958Z,1024.77
2023-02-15T06:49:31.935Z,1024.75
2023-02-15T06:50:31.796Z,1024.78
2023-02-15T06:51:31.736Z,1024.73
2023-02-15T06:52:31.661Z,1024.77
2023-02-15T06:53:31.581Z,1024.77
2023-02-15T06:54:31.508Z,1024.77
2023-02-15T06:55:31.463Z,1024.80
2023-02-15T06:56:31.384Z,1024.78
2023-02-15T06:57:31.304Z,1024.81
2023-02-15T06:58:31.236Z,1024.81
2023-02-15T06:59:31.203Z,1024.81
2023-02-15T07:00:31.091Z,1024.85
2023-02-15T07:01:31.025Z,1024.84
2023-02-15T07:02:30.945Z,1024.86
2023-02-15T07:03:30.864Z,1024.82
2023-02-15T07:04:30.879Z,1024.83
2023-02-15T07:05:30.713Z,1024.83
2023-02-15T07:06:30.642Z,1024.76
2023-02-15T07:07:30.575Z,1024.82
2023-02-15T07:08:30.504Z,1024.76
2023-02-15T07:09:30.428Z,1024.79
2023-02-15T07:10:30.368Z,1024.75
2023-02-15T07:11:30.291Z,1024.74
2023-02-15T07:12:30.216Z,1024.76
2023-02-15T07:13:30.145Z,1024.74
2023-02-15T07:14:30.074Z,1024.74
2023-02-15T07:15:29.999Z,1024.71
2023-02-15T07:16:29.964Z,1024.73
2023-02-15T07:17:35.904Z,1024.72
2023-02-15T07:18:29.791Z,1024.70
2023-02-15T07:19:29.712Z,1024.73
2023-02-15T07:20:29.638Z,1024.72
2023-02-15T07:21:29.569Z,1024.71
2023-02-15T07:22:29.496Z,1024.65
2023-02-15T07:23:29.421Z,1024.70
2023-02-15T07:24:29.384Z,1024.59
2023-02-15T07:25:29.283Z,1024.61
2023-02-15T07:26:29.219Z,1024.61
2023-02-15T07:27:29.140Z,1024.58
2023-02-15T07:28:29.077Z,1024.57
2023-02-15T07:29:28.993Z,1024.58
2023-02-15T07:30:28.968Z,1024.57
2023-02-15T07:31:28.858Z,1024.58
2023-02-15T07:32:28.836Z,1024.55
2023-02-15T07:33:28.720Z,1024.57
2023-02-15T07:34:28.640Z,1024.55
2023-02-15T07:35:28.567Z,1024.57
2023-02-15T07:36:29.393Z,1024.51
2023-02-15T07:37:28.424Z,1024.52
2023-02-15T07:38:28.355Z,1024.51
2023-02-15T07:39:28.283Z,1024.53
2023-02-15T07:40:28.217Z,1024.48
2023-02-15T07:41:28.140Z,1024.49
2023-02-15T07:42:28.077Z,1024.48
2023-02-15T07:43:28.000Z,1024.48
2023-02-15T07:44:27.930Z,1024.45
2023-02-15T07:45:28.989Z,1024.51
2023-02-15T07:46:27.930Z,1024.44
2023-02-15T07:47:27.719Z,1024.45
2023-02-15T07:48:27.650Z,1024.41
2023-02-15T07:49:27.573Z,1024.40
2023-02-15T07:50:27.507Z,1024.39
2023-02-15T07:51:27.429Z,1024.39
2023-02-15T07:52:27.366Z,1024.35
2023-02-15T07:53:27.287Z,1024.31
2023-02-15T07:54:27.220Z,1024.33
2023-02-15T07:55:27.151Z,1024.30
2023-02-15T07:56:27.072Z,1024.34
2023-02-15T07:57:27.011Z,1024.33
2023-02-15T07:58:26.960Z,1024.34
2023-02-15T07:59:26.901Z,1024.29
2023-02-15T08:00:26.796Z,1024.30
2023-02-15T08:01:26.720Z,1024.28
2023-02-15T08:02:26.707Z,1024.30
2023-02-15T08:03:26.642Z,1024.27
2023-02-15T08:04:26.509Z,1024.27
2023-02-15T08:05:26.436Z,1024.26
2023-02-15T08:06:26.360Z,1024.28
2023-02-15T08:07:26.289Z,1024.29
2023-02-15T08:08:26.217Z,1024.31
2023-02-15T08:09:26.145Z,1024.32
2023-02-15T08:10:26.083Z,1024.31
2023-02-15T08:11:26.015Z,1024.30
2023-02-15T08:12:25.936Z,1024.32
2023-02-15T08:13:25.862Z,1024.30
2023-02-15T08:14:25.797Z,1024.32
2023-02-15T08:15:25.737Z,1024.28
2023-02-15T08:16:25.759Z,1024.24
2023-02-15T08:17:25.581Z,1024.27
2023-02-15T08:18:25.628Z,1024.28
2023-02-15T08:19:25.447Z,1024.26
2023-02-15T08:20:25.376Z,1024.24
2023-02-15T08:21:25.304Z,1024.28
2023-02-15T08:22:25.243Z,1024.27
2023-02-15T08:23:25.158Z,1024.26
2023-02-15T08:24:25.085Z,1024.24
2023-02-15T08:25:25.011Z,1024.23
2023-02-15T08:26:24.958Z,1024.25
2023-02-15T08:27:24.873Z,1024.27
2023-02-15T08:28:24.801Z,1024.24
2023-02-15T08:29:24.747Z,1024.25
2023-02-15T08:30:24.778Z,1024.24
2023-02-15T08:31:24.710Z,1024.25
2023-02-15T08:32:24.567Z,1024.26
2023-02-15T08:33:24.445Z,1024.29
2023-02-15T08:34:24.387Z,1024.25
2023-02-15T08:35:24.310Z,1024.27
2023-02-15T08:36:24.247Z,1024.25
2023-02-15T08:37:24.164Z,1024.23
2023-02-15T08:38:24.098Z,1024.24
2023-02-15T08:39:24.021Z,1024.25
2023-02-15T08:40:23.958Z,1024.21
2023-02-15T08:41:23.887Z,1024.21
2023-02-15T08:42:23.817Z,1024.17
2023-02-15T08:43:23.742Z,1024.15
2023-02-15T08:44:23.692Z,1024.11
2023-02-15T08:45:23.599Z,1024.15
2023-02-15T08:46:23.531Z,1024.15
2023-02-15T08:47:23.459Z,1024.12
2023-02-15T08:48:23.401Z,1024.08
2023-02-15T08:49:23.328Z,1024.06
2023-02-15T08:50:23.253Z,1024.02
2023-02-15T08:51:23.174Z,1024.08
2023-02-15T08:52:23.110Z,1024.08
2023-02-15T08:53:23.038Z,1024.03
2023-02-15T08:54:22.978Z,1024.07
2023-02-15T08:55:22.898Z,1024.07
2023-02-15T08:56:22.827Z,1024.02
2023-02-15T08:57:22.756Z,1024.06
2023-02-15T08:58:22.685Z,1024.06
2023-02-15T08:59:22.612Z,1023.97
2023-02-15T09:00:22.550Z,1023.97
2023-02-15T09:01:22.542Z,1023.95
2023-02-15T09:02:22.477Z,1023.95
2023-02-15T09:03:22.330Z,1023.95
2023-02-15T09:04:22.273Z,1023.90
2023-02-15T09:05:22.215Z,1023.89
2023-02-15T09:06:22.141Z,1023.82
2023-02-15T09:07:22.057Z,1023.89
2023-02-15T09:08:21.981Z,1023.89
2023-02-15T09:09:21.926Z,1023.90
2023-02-15T09:10:21.838Z,1023.90
2023-02-15T09:11:21.766Z,1023.90
2023-02-15T09:12:21.703Z,1023.91
2023-02-15T09:13:21.626Z,1023.93
2023-02-15T09:14:21.559Z,1023.92
2023-02-15T09:15:22.424Z,1023.90
2023-02-15T09:16:21.482Z,1023.89
2023-02-15T09:17:21.356Z,1023.92
2023-02-15T09:18:21.285Z,1023.90
2023-02-15T09:19:21.215Z,1023.93
2023-02-15T09:20:21.148Z,1023.89
2023-02-15T09:21:21.070Z,1023.92
2023-02-15T09:22:21.033Z,1023.93
2023-02-15T09:23:26.831Z,1023.92
2023-02-15T09:24:20.864Z,1023.90
2023-02-15T09:25:20.789Z,1023.92
2023-02-15T09:26:20.731Z,1023.93
2023-02-15T09:27:20.652Z,1023.96
2023-02-15T09:28:20.582Z,1023.96
2023-02-15T09:29:20.518Z,1023.94
2023-02-15T09:30:20.504Z,1023.96
2023-02-15T09:31:20.526Z,1023.92
2023-02-15T09:32:20.381Z,1023.96
2023-02-15T09:33:20.236Z,1023.95
2023-02-15T09:34:20.187Z,1023.97
2023-02-15T09:35:20.096Z,1024.00
2023-02-15T09:36:20.037Z,1023.97
2023-02-15T09:37:19.960Z,1023.97
2023-02-15T09:38:19.905Z,1023.95
2023-02-15T09:39:19.833Z,1023.93
2023-02-15T09:40:19.752Z,1023.92
2023-02-15T09:41:19.684Z,1023.95
2023-02-15T09:42:19.620Z,1024.01
2023-02-15T09:43:19.547Z,1023.97
2023-02-15T09:44:19.476Z,1023.98
2023-02-15T09:45:19.407Z,1023.98
2023-02-15T09:46:19.373Z,1023.99
2023-02-15T09:47:19.270Z,1023.97
2023-02-15T09:48:19.212Z,1023.97
2023-02-15T09:49:19.140Z,1023.99
2023-02-15T09:50:19.071Z,1024.03
2023-02-15T09:51:18.999Z,1024.04
2023-02-15T09:52:18.938Z,1023.99
2023-02-15T09:53:18.872Z,1023.98
2023-02-15T09:54:18.801Z,1024.02
2023-02-15T09:55:18.727Z,1024.02
2023-02-15T09:56:20.735Z,1024.05
2023-02-15T09:57:18.592Z,1024.00
2023-02-15T09:58:18.540Z,1023.98
2023-02-15T09:59:18.466Z,1024.01
2023-02-15T10:00:18.395Z,1024.01
2023-02-15T10:01:18.350Z,1024.06
2023-02-15T10:02:18.265Z,1024.03
2023-02-15T10:03:18.197Z,1024.07
2023-02-15T10:04:18.154Z,1023.98
2023-02-15T10:05:18.067Z,1023.99
2023-02-15T10:06:18.006Z,1023.99
2023-02-15T10:07:17.941Z,1023.96
2023-02-15T10:08:17.899Z,1023.97
2023-02-15T10:09:17.825Z,1023.96
2023-02-15T10:10:18.116Z,1023.91
2023-02-15T10:11:17.677Z,1023.97
2023-02-15T10:12:17.618Z,1023.93
2023-02-15T10:13:17.548Z,1023.93
2023-02-15T10:14:17.486Z,1023.90
2023-02-15T10:15:17.435Z,1023.93
2023-02-15T10:16:17.384Z,1023.93
2023-02-15T10:17:17.298Z,1023.89
2023-02-15T10:18:17.240Z,1023.97
2023-02-15T10:19:17.176Z,1023.91
2023-02-15T10:20:17.113Z,1023.90
2023-02-15T10:21:17.050Z,1023.86
2023-02-15T10:22:16.990Z,1023.85
2023-02-15T10:23:16.927Z,1023.85
2023-02-15T10:24:16.863Z,1023.78
2023-02-15T10:25:16.822Z,1023.81
2023-02-15T10:26:16.745Z,1023.77
2023-02-15T10:27:16.693Z,1023.78
2023-02-15T10:28:16.620Z,1023.74
2023-02-15T10:29:16.562Z,1023.74
2023-02-15T10:30:16.587Z,1023.70
2023-02-15T10:31:16.528Z,1023.72
2023-02-15T10:32:16.653Z,1023.74
2023-02-15T10:33:16.314Z,1023.70
2023-02-15T10:34:16.263Z,1023.72
2023-02-15T10:35:16.213Z,1023.70
2023-02-15T10:36:16.138Z,1023.73
2023-02-15T10:37:16.067Z,1023.73
2023-02-15T10:38:16.007Z,1023.69
2023-02-15T10:39:15.950Z,1023.73
2023-02-15T10:40:15.886Z,1023.65
2023-02-15T10:41:15.826Z,1023.69
2023-02-15T10:42:15.770Z,1023.64
2023-02-15T10:43:15.710Z,1023.65
2023-02-15T10:44:15.659Z,1023.62
2023-02-15T10:45:15.585Z,1023.61
2023-02-15T10:46:15.561Z,1023.55
2023-02-15T10:47:15.472Z,1023.57
2023-02-15T10:48:15.421Z,1023.54
2023-02-15T10:49:15.346Z,1023.54
2023-02-15T10:50:15.316Z,1023.54
2023-02-15T10:51:15.232Z,1023.54
2023-02-15T10:52:15.176Z,1023.55
2023-02-15T10:53:15.112Z,1023.54
2023-02-15T10:54:15.051Z,1023.52
2023-02-15T10:55:14.993Z,1023.57
2023-02-15T10:56:14.935Z,1023.59
2023-02-15T10:57:14.873Z,1023.60
2023-02-15T10:58:14.817Z,1023.59
2023-02-15T10:59:14.754Z,1023.60
2023-02-15T11:00:14.695Z,1023.58
2023-02-15T11:01:14.654Z,1023.60
2023-02-15T11:02:14.578Z,1023.62
2023-02-15T11:03:14.521Z,1023.61
2023-02-15T11:04:16.558Z,1023.68
2023-02-15T11:05:14.429Z,1023.78
2023-02-15T11:06:14.342Z,1023.89
2023-02-15T11:07:14.285Z,1024.01
2023-02-15T11:08:14.233Z,1024.03
2023-02-15T11:09:14.198Z,1024.08
2023-02-15T11:10:14.574Z,1024.34
2023-02-15T11:11:14.053Z,1024.87
2023-02-15T11:12:13.990Z,1025.68
2023-02-15T11:13:13.933Z,1025.32
2023-02-15T11:14:13.871Z,1024.45
2023-02-15T11:15:13.806Z,1024.16
2023-02-15T11:16:13.823Z,1024.04
2023-02-15T11:17:13.686Z,1023.91
2023-02-15T11:18:13.630Z,1023.82
2023-02-15T11:19:13.577Z,1023.81
2023-02-15T11:20:13.509Z,1023.74
2023-02-15T11:21:13.452Z,1023.65
2023-02-15T11:22:13.464Z,1023.57
2023-02-15T11:23:13.341Z,1023.52
2023-02-15T11:24:13.279Z,1023.52
2023-02-15T11:25:13.217Z,1023.46
2023-02-15T11:26:13.154Z,1023.46
2023-02-15T11:27:13.139Z,1023.49
2023-02-15T11:28:13.049Z,1023.44
2023-02-15T11:29:12.991Z,1023.45
2023-02-15T11:30:13.023Z,1023.44
2023-02-15T11:31:12.942Z,1023.44
2023-02-15T11:32:12.970Z,1023.45
2023-02-15T11:33:12.759Z,1023.39
2023-02-15T11:34:12.685Z,1023.23
2023-02-15T11:35:12.643Z,1023.10
2023-02-15T11:36:12.575Z,1023.12
2023-02-15T11:37:12.519Z,1023.11
2023-02-15T11:38:12.454Z,1023.05
2023-02-15T11:39:12.416Z,1023.02
2023-02-15T11:40:12.341Z,1023.02
2023-02-15T11:41:12.280Z,1023.03
2023-02-15T11:42:12.218Z,1023.06
2023-02-15T11:43:12.165Z,1023.02
2023-02-15T11:44:12.096Z,1023.00
2023-02-15T11:45:12.045Z,1023.03
2023-02-15T11:46:12.498Z,1022.99
2023-02-15T11:47:11.920Z,1022.94
2023-02-15T11:48:11.870Z,1022.90
2023-02-15T11:49:11.800Z,1022.91
2023-02-15T11:50:11.754Z,1022.88
2023-02-15T11:51:11.710Z,1022.84
2023-02-15T11:52:11.630Z,1022.83
2023-02-15T11:53:11.590Z,1022.86
2023-02-15T11:54:11.496Z,1022.84
2023-02-15T11:55:11.441Z,1022.88
2023-02-15T11:56:11.366Z,1022.84
2023-02-15T11:57:11.332Z,1022.84
2023-02-15T11:58:11.251Z,1022.85
2023-02-15T11:59:11.177Z,1022.82
2023-02-15T12:00:11.150Z,1022.77
2023-02-15T12:01:11.051Z,1022.80
2023-02-15T12:02:10.996Z,1022.78
2023-02-15T12:03:10.999Z,1022.78
2023-02-15T12:04:10.918Z,1022.77